sensor_id;sensor_type;location;lat;lon;timestamp;P1;durP1;ratioP1;P2;durP2;ratioP2
11305;SDS011;5708;50.660;6.778;2022-09-12T00:02:11;19.67;;;13.93;;
11305;SDS011;5708;50.660;6.778;2022-09-12T00:04:36;18.58;;;13.63;;
11305;SDS011;5708;50.660;6.778;2022-09-12T00:07:02;20.23;;;14.65;;
11305;SDS011;5708;50.660;6.778;2022-09-12T00:09:27;19.27;;;14.40;;
11305;SDS011;5708;50.660;6.778;2022-09-12T00:11:52;19.33;;;14.70;;
11305;SDS011;5708;50.660;6.778;2022-09-12T00:14:18;20.15;;;15.07;;
11305;SDS011;5708;50.660;6.778;2022-09-12T00:16:43;21.50;;;15.32;;
11305;SDS011;5708;50.660;6.778;2022-09-12T00:19:09;22.50;;;15.43;;
11305;SDS011;5708;50.660;6.778;2022-09-12T00:21:36;19.88;;;14.02;;
11305;SDS011;5708;50.660;6.778;2022-09-12T00:24:02;20.20;;;15.43;;
11305;SDS011;5708;50.660;6.778;2022-09-12T00:26:28;20.83;;;15.07;;
11305;SDS011;5708;50.660;6.778;2022-09-12T00:28:54;20.35;;;14.55;;
11305;SDS011;5708;50.660;6.778;2022-09-12T00:31:20;19.77;;;15.00;;
11305;SDS011;5708;50.660;6.778;2022-09-12T00:33:48;23.48;;;16.88;;
11305;SDS011;5708;50.660;6.778;2022-09-12T00:36:18;24.27;;;16.40;;
11305;SDS011;5708;50.660;6.778;2022-09-12T00:38:45;24.88;;;16.70;;
11305;SDS011;5708;50.660;6.778;2022-09-12T00:43:42;25.80;;;17.00;;
11305;SDS011;5708;50.660;6.778;2022-09-12T00:46:18;24.23;;;16.48;;
11305;SDS011;5708;50.660;6.778;2022-09-12T00:49:33;24.33;;;17.55;;
11305;SDS011;5708;50.660;6.778;2022-09-12T00:51:37;22.48;;;15.95;;
11305;SDS011;5708;50.660;6.778;2022-09-12T00:54:04;24.08;;;17.45;;
11305;SDS011;5708;50.660;6.778;2022-09-12T00:56:33;25.40;;;16.77;;
11305;SDS011;5708;50.660;6.778;2022-09-12T00:59:07;25.50;;;17.17;;
11305;SDS011;5708;50.660;6.778;2022-09-12T01:01:36;25.77;;;17.60;;
11305;SDS011;5708;50.660;6.778;2022-09-12T01:04:03;25.42;;;17.70;;
11305;SDS011;5708;50.660;6.778;2022-09-12T01:06:31;24.48;;;17.13;;
11305;SDS011;5708;50.660;6.778;2022-09-12T01:08:59;23.52;;;16.77;;
11305;SDS011;5708;50.660;6.778;2022-09-12T01:11:27;21.85;;;16.17;;
11305;SDS011;5708;50.660;6.778;2022-09-12T01:13:52;23.40;;;16.25;;
11305;SDS011;5708;50.660;6.778;2022-09-12T01:16:18;23.33;;;16.67;;
11305;SDS011;5708;50.660;6.778;2022-09-12T01:18:53;24.42;;;16.58;;
11305;SDS011;5708;50.660;6.778;2022-09-12T01:21:38;24.73;;;16.50;;
11305;SDS011;5708;50.660;6.778;2022-09-12T01:27:09;26.83;;;17.48;;
11305;SDS011;5708;50.660;6.778;2022-09-12T01:32:54;23.33;;;16.38;;
11305;SDS011;5708;50.660;6.778;2022-09-12T01:41:10;23.17;;;15.57;;
11305;SDS011;5708;50.660;6.778;2022-09-12T01:46:15;21.85;;;15.77;;
11305;SDS011;5708;50.660;6.778;2022-09-12T01:48:43;25.83;;;17.35;;
11305;SDS011;5708;50.660;6.778;2022-09-12T01:51:41;26.73;;;15.93;;
11305;SDS011;5708;50.660;6.778;2022-09-12T01:54:34;22.45;;;15.82;;
11305;SDS011;5708;50.660;6.778;2022-09-12T01:57:05;23.42;;;16.23;;
11305;SDS011;5708;50.660;6.778;2022-09-12T01:59:36;25.63;;;17.05;;
11305;SDS011;5708;50.660;6.778;2022-09-12T02:04:41;26.90;;;17.40;;
11305;SDS011;5708;50.660;6.778;2022-09-12T02:10:18;25.35;;;17.73;;
11305;SDS011;5708;50.660;6.778;2022-09-12T02:12:47;29.13;;;18.58;;
11305;SDS011;5708;50.660;6.778;2022-09-12T02:15:17;30.73;;;19.73;;
11305;SDS011;5708;50.660;6.778;2022-09-12T02:17:46;29.63;;;19.67;;
11305;SDS011;5708;50.660;6.778;2022-09-12T02:20:15;30.45;;;18.30;;
11305;SDS011;5708;50.660;6.778;2022-09-12T02:22:43;28.67;;;18.98;;
11305;SDS011;5708;50.660;6.778;2022-09-12T02:25:10;28.98;;;19.65;;
11305;SDS011;5708;50.660;6.778;2022-09-12T02:30:12;29.25;;;18.83;;
11305;SDS011;5708;50.660;6.778;2022-09-12T02:33:02;27.10;;;18.38;;
11305;SDS011;5708;50.660;6.778;2022-09-12T02:38:11;25.73;;;18.05;;
11305;SDS011;5708;50.660;6.778;2022-09-12T02:40:52;30.33;;;19.13;;
11305;SDS011;5708;50.660;6.778;2022-09-12T02:43:18;26.00;;;18.48;;
11305;SDS011;5708;50.660;6.778;2022-09-12T02:45:43;24.83;;;17.20;;
11305;SDS011;5708;50.660;6.778;2022-09-12T02:50:45;28.40;;;19.08;;
11305;SDS011;5708;50.660;6.778;2022-09-12T02:53:11;34.20;;;20.83;;
11305;SDS011;5708;50.660;6.778;2022-09-12T02:55:37;32.60;;;20.33;;
11305;SDS011;5708;50.660;6.778;2022-09-12T02:58:05;31.48;;;19.98;;
11305;SDS011;5708;50.660;6.778;2022-09-12T03:00:34;37.72;;;22.83;;
11305;SDS011;5708;50.660;6.778;2022-09-12T03:06:00;31.02;;;20.23;;
11305;SDS011;5708;50.660;6.778;2022-09-12T03:11:18;32.55;;;21.27;;
11305;SDS011;5708;50.660;6.778;2022-09-12T03:24:40;30.05;;;19.73;;
11305;SDS011;5708;50.660;6.778;2022-09-12T03:27:12;34.88;;;21.73;;
11305;SDS011;5708;50.660;6.778;2022-09-12T03:29:40;32.75;;;21.88;;
11305;SDS011;5708;50.660;6.778;2022-09-12T03:32:06;35.97;;;21.38;;
11305;SDS011;5708;50.660;6.778;2022-09-12T03:34:32;34.75;;;21.42;;
11305;SDS011;5708;50.660;6.778;2022-09-12T03:36:57;32.58;;;19.83;;
11305;SDS011;5708;50.660;6.778;2022-09-12T03:39:23;33.58;;;20.73;;
11305;SDS011;5708;50.660;6.778;2022-09-12T03:41:50;34.75;;;20.90;;
11305;SDS011;5708;50.660;6.778;2022-09-12T03:44:16;32.80;;;21.52;;
11305;SDS011;5708;50.660;6.778;2022-09-12T03:46:42;32.72;;;20.42;;
11305;SDS011;5708;50.660;6.778;2022-09-12T03:49:07;30.90;;;19.50;;
11305;SDS011;5708;50.660;6.778;2022-09-12T03:51:34;32.60;;;19.65;;
11305;SDS011;5708;50.660;6.778;2022-09-12T03:54:00;27.92;;;18.73;;
11305;SDS011;5708;50.660;6.778;2022-09-12T03:56:25;32.70;;;20.40;;
11305;SDS011;5708;50.660;6.778;2022-09-12T03:58:51;30.77;;;18.75;;
11305;SDS011;5708;50.660;6.778;2022-09-12T04:01:17;31.50;;;19.27;;
11305;SDS011;5708;50.660;6.778;2022-09-12T04:03:44;29.58;;;19.52;;
11305;SDS011;5708;50.660;6.778;2022-09-12T04:06:12;33.88;;;19.40;;
11305;SDS011;5708;50.660;6.778;2022-09-12T04:08:39;31.10;;;19.38;;
11305;SDS011;5708;50.660;6.778;2022-09-12T04:11:09;30.58;;;18.48;;
11305;SDS011;5708;50.660;6.778;2022-09-12T04:13:36;27.10;;;16.45;;
11305;SDS011;5708;50.660;6.778;2022-09-12T04:16:02;27.77;;;17.83;;
11305;SDS011;5708;50.660;6.778;2022-09-12T04:18:28;26.60;;;17.50;;
11305;SDS011;5708;50.660;6.778;2022-09-12T04:20:54;25.83;;;17.17;;
11305;SDS011;5708;50.660;6.778;2022-09-12T04:23:19;26.30;;;17.15;;
11305;SDS011;5708;50.660;6.778;2022-09-12T04:25:52;28.77;;;18.10;;
11305;SDS011;5708;50.660;6.778;2022-09-12T04:28:22;27.17;;;17.55;;
11305;SDS011;5708;50.660;6.778;2022-09-12T04:30:47;27.17;;;17.65;;
11305;SDS011;5708;50.660;6.778;2022-09-12T04:33:13;27.58;;;18.05;;
11305;SDS011;5708;50.660;6.778;2022-09-12T04:35:38;30.73;;;18.35;;
11305;SDS011;5708;50.660;6.778;2022-09-12T04:38:03;30.73;;;18.35;;
11305;SDS011;5708;50.660;6.778;2022-09-12T04:40:29;31.10;;;18.67;;
11305;SDS011;5708;50.660;6.778;2022-09-12T04:42:55;28.58;;;18.20;;
11305;SDS011;5708;50.660;6.778;2022-09-12T04:45:21;28.92;;;17.98;;
11305;SDS011;5708;50.660;6.778;2022-09-12T04:47:47;31.90;;;19.05;;
11305;SDS011;5708;50.660;6.778;2022-09-12T04:50:12;30.90;;;18.42;;
11305;SDS011;5708;50.660;6.778;2022-09-12T04:52:38;29.73;;;18.23;;
11305;SDS011;5708;50.660;6.778;2022-09-12T04:55:04;30.50;;;18.80;;
11305;SDS011;5708;50.660;6.778;2022-09-12T04:57:30;29.30;;;18.55;;
11305;SDS011;5708;50.660;6.778;2022-09-12T04:59:56;28.58;;;17.92;;
11305;SDS011;5708;50.660;6.778;2022-09-12T05:02:21;27.77;;;17.45;;
11305;SDS011;5708;50.660;6.778;2022-09-12T05:04:46;27.77;;;17.85;;
11305;SDS011;5708;50.660;6.778;2022-09-12T05:07:12;27.17;;;17.75;;
11305;SDS011;5708;50.660;6.778;2022-09-12T05:09:37;30.00;;;17.70;;
11305;SDS011;5708;50.660;6.778;2022-09-12T05:12:02;29.27;;;17.95;;
11305;SDS011;5708;50.660;6.778;2022-09-12T05:14:30;30.17;;;18.42;;
11305;SDS011;5708;50.660;6.778;2022-09-12T05:16:56;27.20;;;17.73;;
11305;SDS011;5708;50.660;6.778;2022-09-12T05:19:24;28.67;;;18.05;;
11305;SDS011;5708;50.660;6.778;2022-09-12T05:21:50;32.38;;;20.10;;
11305;SDS011;5708;50.660;6.778;2022-09-12T05:24:15;30.73;;;19.48;;
11305;SDS011;5708;50.660;6.778;2022-09-12T05:26:41;33.17;;;20.42;;
11305;SDS011;5708;50.660;6.778;2022-09-12T05:29:06;33.67;;;20.48;;
11305;SDS011;5708;50.660;6.778;2022-09-12T05:31:32;34.00;;;20.75;;
11305;SDS011;5708;50.660;6.778;2022-09-12T05:33:57;31.33;;;19.98;;
11305;SDS011;5708;50.660;6.778;2022-09-12T05:36:25;30.73;;;19.25;;
11305;SDS011;5708;50.660;6.778;2022-09-12T05:38:53;32.40;;;20.67;;
11305;SDS011;5708;50.660;6.778;2022-09-12T05:41:19;31.80;;;20.27;;
11305;SDS011;5708;50.660;6.778;2022-09-12T05:43:52;32.25;;;20.45;;
11305;SDS011;5708;50.660;6.778;2022-09-12T05:46:19;32.47;;;19.88;;
11305;SDS011;5708;50.660;6.778;2022-09-12T05:48:46;37.45;;;20.83;;
11305;SDS011;5708;50.660;6.778;2022-09-12T05:51:19;33.88;;;20.10;;
11305;SDS011;5708;50.660;6.778;2022-09-12T05:53:46;27.52;;;18.42;;
11305;SDS011;5708;50.660;6.778;2022-09-12T05:56:14;27.88;;;18.45;;
11305;SDS011;5708;50.660;6.778;2022-09-12T05:58:42;31.27;;;19.80;;
11305;SDS011;5708;50.660;6.778;2022-09-12T06:01:10;33.50;;;20.33;;
11305;SDS011;5708;50.660;6.778;2022-09-12T06:03:44;35.40;;;20.38;;
11305;SDS011;5708;50.660;6.778;2022-09-12T06:06:12;30.80;;;19.98;;
11305;SDS011;5708;50.660;6.778;2022-09-12T06:08:38;28.38;;;19.58;;
11305;SDS011;5708;50.660;6.778;2022-09-12T06:11:05;29.00;;;18.17;;
11305;SDS011;5708;50.660;6.778;2022-09-12T06:13:32;27.50;;;17.83;;
11305;SDS011;5708;50.660;6.778;2022-09-12T06:16:05;31.73;;;19.95;;
11305;SDS011;5708;50.660;6.778;2022-09-12T06:18:35;31.05;;;19.15;;
11305;SDS011;5708;50.660;6.778;2022-09-12T06:21:02;28.08;;;18.58;;
11305;SDS011;5708;50.660;6.778;2022-09-12T06:23:35;28.95;;;17.33;;
11305;SDS011;5708;50.660;6.778;2022-09-12T06:26:01;36.05;;;18.85;;
11305;SDS011;5708;50.660;6.778;2022-09-12T06:28:28;28.90;;;18.15;;
11305;SDS011;5708;50.660;6.778;2022-09-12T06:30:59;29.17;;;17.70;;
11305;SDS011;5708;50.660;6.778;2022-09-12T06:33:26;27.35;;;17.50;;
11305;SDS011;5708;50.660;6.778;2022-09-12T06:35:51;24.45;;;16.67;;
11305;SDS011;5708;50.660;6.778;2022-09-12T06:38:17;25.05;;;15.43;;
11305;SDS011;5708;50.660;6.778;2022-09-12T06:40:42;26.50;;;16.27;;
11305;SDS011;5708;50.660;6.778;2022-09-12T06:43:09;23.13;;;14.43;;
11305;SDS011;5708;50.660;6.778;2022-09-12T06:45:36;21.65;;;13.75;;
11305;SDS011;5708;50.660;6.778;2022-09-12T06:48:01;19.48;;;13.80;;
11305;SDS011;5708;50.660;6.778;2022-09-12T06:50:27;19.95;;;13.43;;
11305;SDS011;5708;50.660;6.778;2022-09-12T06:52:52;22.38;;;13.18;;
11305;SDS011;5708;50.660;6.778;2022-09-12T06:55:18;18.38;;;12.20;;
11305;SDS011;5708;50.660;6.778;2022-09-12T06:57:43;15.77;;;11.05;;
11305;SDS011;5708;50.660;6.778;2022-09-12T07:00:09;15.35;;;10.60;;
11305;SDS011;5708;50.660;6.778;2022-09-12T07:02:34;15.10;;;10.18;;
11305;SDS011;5708;50.660;6.778;2022-09-12T07:05:00;13.00;;;9.40;;
11305;SDS011;5708;50.660;6.778;2022-09-12T07:07:25;14.88;;;8.55;;
11305;SDS011;5708;50.660;6.778;2022-09-12T07:09:50;12.85;;;8.77;;
11305;SDS011;5708;50.660;6.778;2022-09-12T07:12:16;18.17;;;8.25;;
11305;SDS011;5708;50.660;6.778;2022-09-12T07:14:41;17.35;;;8.23;;
11305;SDS011;5708;50.660;6.778;2022-09-12T07:17:07;11.82;;;7.80;;
11305;SDS011;5708;50.660;6.778;2022-09-12T07:19:32;11.48;;;7.70;;
11305;SDS011;5708;50.660;6.778;2022-09-12T07:21:58;14.35;;;7.82;;
11305;SDS011;5708;50.660;6.778;2022-09-12T07:24:24;10.98;;;7.93;;
11305;SDS011;5708;50.660;6.778;2022-09-12T07:26:50;11.82;;;8.35;;
11305;SDS011;5708;50.660;6.778;2022-09-12T07:29:15;12.52;;;8.60;;
11305;SDS011;5708;50.660;6.778;2022-09-12T07:31:41;13.38;;;8.52;;
11305;SDS011;5708;50.660;6.778;2022-09-12T07:34:06;12.68;;;8.70;;
11305;SDS011;5708;50.660;6.778;2022-09-12T07:36:32;13.93;;;9.20;;
11305;SDS011;5708;50.660;6.778;2022-09-12T07:38:58;14.43;;;9.35;;
11305;SDS011;5708;50.660;6.778;2022-09-12T07:41:24;12.15;;;8.63;;
11305;SDS011;5708;50.660;6.778;2022-09-12T07:43:52;15.05;;;10.63;;
11305;SDS011;5708;50.660;6.778;2022-09-12T07:46:22;14.35;;;9.10;;
11305;SDS011;5708;50.660;6.778;2022-09-12T07:48:49;13.18;;;9.07;;
11305;SDS011;5708;50.660;6.778;2022-09-12T07:51:16;14.85;;;9.52;;
11305;SDS011;5708;50.660;6.778;2022-09-12T07:53:42;16.25;;;10.23;;
11305;SDS011;5708;50.660;6.778;2022-09-12T07:56:08;16.55;;;10.20;;
11305;SDS011;5708;50.660;6.778;2022-09-12T07:58:35;20.10;;;10.88;;
11305;SDS011;5708;50.660;6.778;2022-09-12T08:01:02;16.63;;;10.85;;
11305;SDS011;5708;50.660;6.778;2022-09-12T08:03:32;28.23;;;10.40;;
11305;SDS011;5708;50.660;6.778;2022-09-12T08:06:08;16.55;;;10.40;;
11305;SDS011;5708;50.660;6.778;2022-09-12T08:08:35;18.02;;;11.10;;
11305;SDS011;5708;50.660;6.778;2022-09-12T08:11:02;17.45;;;10.30;;
11305;SDS011;5708;50.660;6.778;2022-09-12T08:13:30;15.63;;;9.73;;
11305;SDS011;5708;50.660;6.778;2022-09-12T08:15:56;16.42;;;10.15;;
11305;SDS011;5708;50.660;6.778;2022-09-12T08:18:25;12.95;;;8.57;;
11305;SDS011;5708;50.660;6.778;2022-09-12T08:20:58;13.75;;;8.57;;
11305;SDS011;5708;50.660;6.778;2022-09-12T08:23:25;10.85;;;7.70;;
11305;SDS011;5708;50.660;6.778;2022-09-12T08:25:54;12.32;;;7.38;;
11305;SDS011;5708;50.660;6.778;2022-09-12T08:28:23;11.68;;;8.30;;
11305;SDS011;5708;50.660;6.778;2022-09-12T08:30:50;10.48;;;7.45;;
11305;SDS011;5708;50.660;6.778;2022-09-12T08:33:15;11.23;;;7.43;;
11305;SDS011;5708;50.660;6.778;2022-09-12T08:35:41;11.43;;;6.93;;
11305;SDS011;5708;50.660;6.778;2022-09-12T08:38:06;10.43;;;7.00;;
11305;SDS011;5708;50.660;6.778;2022-09-12T08:40:32;8.88;;;6.57;;
11305;SDS011;5708;50.660;6.778;2022-09-12T08:45:49;13.02;;;7.07;;
11305;SDS011;5708;50.660;6.778;2022-09-12T08:48:18;12.07;;;7.32;;
11305;SDS011;5708;50.660;6.778;2022-09-12T08:50:43;10.57;;;8.07;;
11305;SDS011;5708;50.660;6.778;2022-09-12T08:58:21;8.98;;;6.43;;
11305;SDS011;5708;50.660;6.778;2022-09-12T09:09:22;11.63;;;5.75;;
11305;SDS011;5708;50.660;6.778;2022-09-12T09:14:54;8.93;;;5.43;;
11305;SDS011;5708;50.660;6.778;2022-09-12T09:17:42;12.52;;;6.15;;
11305;SDS011;5708;50.660;6.778;2022-09-12T09:31:11;9.30;;;4.63;;
11305;SDS011;5708;50.660;6.778;2022-09-12T09:33:41;10.60;;;4.70;;
11305;SDS011;5708;50.660;6.778;2022-09-12T09:36:19;8.13;;;4.75;;
11305;SDS011;5708;50.660;6.778;2022-09-12T09:43:56;6.70;;;3.08;;
11305;SDS011;5708;50.660;6.778;2022-09-12T09:46:22;5.70;;;2.33;;
11305;SDS011;5708;50.660;6.778;2022-09-12T09:48:48;3.65;;;2.50;;
11305;SDS011;5708;50.660;6.778;2022-09-12T09:51:15;5.15;;;1.95;;
11305;SDS011;5708;50.660;6.778;2022-09-12T09:56:35;3.05;;;2.00;;
11305;SDS011;5708;50.660;6.778;2022-09-12T09:59:17;2.72;;;1.90;;
11305;SDS011;5708;50.660;6.778;2022-09-12T10:01:47;3.30;;;2.08;;
11305;SDS011;5708;50.660;6.778;2022-09-12T10:04:18;4.97;;;2.10;;
11305;SDS011;5708;50.660;6.778;2022-09-12T10:06:50;3.10;;;1.98;;
11305;SDS011;5708;50.660;6.778;2022-09-12T10:09:21;6.35;;;2.13;;
11305;SDS011;5708;50.660;6.778;2022-09-12T10:11:48;2.10;;;1.85;;
11305;SDS011;5708;50.660;6.778;2022-09-12T10:14:25;3.42;;;2.05;;
11305;SDS011;5708;50.660;6.778;2022-09-12T10:16:59;5.13;;;1.65;;
11305;SDS011;5708;50.660;6.778;2022-09-12T10:19:35;3.20;;;1.80;;
11305;SDS011;5708;50.660;6.778;2022-09-12T10:22:02;2.63;;;1.60;;
11305;SDS011;5708;50.660;6.778;2022-09-12T10:27:08;2.20;;;1.70;;
11305;SDS011;5708;50.660;6.778;2022-09-12T10:32:22;2.03;;;1.70;;
11305;SDS011;5708;50.660;6.778;2022-09-12T10:34:51;4.53;;;1.77;;
11305;SDS011;5708;50.660;6.778;2022-09-12T10:37:22;3.15;;;1.70;;
11305;SDS011;5708;50.660;6.778;2022-09-12T10:39:54;2.92;;;1.67;;
11305;SDS011;5708;50.660;6.778;2022-09-12T10:47:45;3.00;;;1.58;;
11305;SDS011;5708;50.660;6.778;2022-09-12T10:52:51;2.05;;;1.75;;
11305;SDS011;5708;50.660;6.778;2022-09-12T10:55:27;3.50;;;1.60;;
11305;SDS011;5708;50.660;6.778;2022-09-12T10:57:59;2.03;;;1.42;;
11305;SDS011;5708;50.660;6.778;2022-09-12T11:00:45;2.08;;;1.60;;
11305;SDS011;5708;50.660;6.778;2022-09-12T11:03:18;1.88;;;1.50;;
11305;SDS011;5708;50.660;6.778;2022-09-12T11:22:04;2.15;;;1.58;;
11305;SDS011;5708;50.660;6.778;2022-09-12T11:27:27;3.97;;;1.42;;
11305;SDS011;5708;50.660;6.778;2022-09-12T11:30:06;2.00;;;1.40;;
11305;SDS011;5708;50.660;6.778;2022-09-12T11:40:37;1.92;;;1.50;;
11305;SDS011;5708;50.660;6.778;2022-09-12T11:43:30;4.05;;;1.75;;
11305;SDS011;5708;50.660;6.778;2022-09-12T11:45:58;6.38;;;2.10;;
11305;SDS011;5708;50.660;6.778;2022-09-12T11:51:12;3.28;;;1.73;;
11305;SDS011;5708;50.660;6.778;2022-09-12T11:53:44;2.88;;;1.60;;
11305;SDS011;5708;50.660;6.778;2022-09-12T11:56:18;1.90;;;1.50;;
11305;SDS011;5708;50.660;6.778;2022-09-12T11:58:45;2.00;;;1.40;;
11305;SDS011;5708;50.660;6.778;2022-09-12T12:01:16;2.42;;;1.50;;
11305;SDS011;5708;50.660;6.778;2022-09-12T12:03:46;2.28;;;1.40;;
11305;SDS011;5708;50.660;6.778;2022-09-12T12:06:23;3.13;;;1.60;;
11305;SDS011;5708;50.660;6.778;2022-09-12T12:08:52;2.30;;;1.42;;
11305;SDS011;5708;50.660;6.778;2022-09-12T12:14:20;2.50;;;1.60;;
11305;SDS011;5708;50.660;6.778;2022-09-12T12:16:49;1.98;;;1.15;;
11305;SDS011;5708;50.660;6.778;2022-09-12T12:21:40;2.55;;;1.70;;
11305;SDS011;5708;50.660;6.778;2022-09-12T12:24:15;3.42;;;2.08;;
11305;SDS011;5708;50.660;6.778;2022-09-12T12:26:53;1.55;;;1.35;;
11305;SDS011;5708;50.660;6.778;2022-09-12T12:29:38;2.20;;;1.38;;
11305;SDS011;5708;50.660;6.778;2022-09-12T12:47:33;2.45;;;1.42;;
11305;SDS011;5708;50.660;6.778;2022-09-12T12:50:05;4.07;;;1.45;;
11305;SDS011;5708;50.660;6.778;2022-09-12T12:52:51;2.47;;;1.55;;
11305;SDS011;5708;50.660;6.778;2022-09-12T12:57:59;2.95;;;1.60;;
11305;SDS011;5708;50.660;6.778;2022-09-12T13:00:30;2.40;;;1.40;;
11305;SDS011;5708;50.660;6.778;2022-09-12T13:02:59;1.80;;;1.30;;
11305;SDS011;5708;50.660;6.778;2022-09-12T13:05:26;3.30;;;1.50;;
11305;SDS011;5708;50.660;6.778;2022-09-12T13:07:54;2.55;;;1.38;;
11305;SDS011;5708;50.660;6.778;2022-09-12T13:10:23;1.77;;;1.10;;
11305;SDS011;5708;50.660;6.778;2022-09-12T13:12:52;2.00;;;1.33;;
11305;SDS011;5708;50.660;6.778;2022-09-12T13:18:00;2.88;;;1.27;;
11305;SDS011;5708;50.660;6.778;2022-09-12T13:23:34;3.13;;;1.40;;
11305;SDS011;5708;50.660;6.778;2022-09-12T13:26:00;2.28;;;1.40;;
11305;SDS011;5708;50.660;6.778;2022-09-12T13:28:27;1.67;;;1.38;;
11305;SDS011;5708;50.660;6.778;2022-09-12T13:33:24;2.88;;;1.25;;
11305;SDS011;5708;50.660;6.778;2022-09-12T13:39:04;2.13;;;1.23;;
11305;SDS011;5708;50.660;6.778;2022-09-12T13:44:52;2.03;;;1.40;;
11305;SDS011;5708;50.660;6.778;2022-09-12T13:47:42;1.83;;;1.35;;
11305;SDS011;5708;50.660;6.778;2022-09-12T13:50:17;2.75;;;1.33;;
11305;SDS011;5708;50.660;6.778;2022-09-12T13:52:46;4.35;;;1.23;;
11305;SDS011;5708;50.660;6.778;2022-09-12T13:55:22;2.00;;;1.33;;
11305;SDS011;5708;50.660;6.778;2022-09-12T13:58:35;3.05;;;1.52;;
11305;SDS011;5708;50.660;6.778;2022-09-12T14:03:27;3.95;;;1.50;;
11305;SDS011;5708;50.660;6.778;2022-09-12T14:06:13;2.35;;;1.50;;
11305;SDS011;5708;50.660;6.778;2022-09-12T14:08:40;2.85;;;1.40;;
11305;SDS011;5708;50.660;6.778;2022-09-12T14:11:09;2.00;;;1.42;;
11305;SDS011;5708;50.660;6.778;2022-09-12T14:13:36;2.35;;;1.35;;
11305;SDS011;5708;50.660;6.778;2022-09-12T14:16:03;1.95;;;1.40;;
11305;SDS011;5708;50.660;6.778;2022-09-12T14:18:32;5.93;;;1.65;;
11305;SDS011;5708;50.660;6.778;2022-09-12T14:21:04;2.03;;;1.38;;
11305;SDS011;5708;50.660;6.778;2022-09-12T14:23:34;1.58;;;1.30;;
11305;SDS011;5708;50.660;6.778;2022-09-12T14:26:07;2.78;;;1.40;;
11305;SDS011;5708;50.660;6.778;2022-09-12T14:28:35;2.65;;;1.50;;
11305;SDS011;5708;50.660;6.778;2022-09-12T14:33:31;2.05;;;1.25;;
11305;SDS011;5708;50.660;6.778;2022-09-12T14:36:08;6.22;;;1.52;;
11305;SDS011;5708;50.660;6.778;2022-09-12T14:38:40;1.95;;;1.35;;
11305;SDS011;5708;50.660;6.778;2022-09-12T14:41:07;1.80;;;1.30;;
11305;SDS011;5708;50.660;6.778;2022-09-12T14:43:35;3.50;;;1.55;;
11305;SDS011;5708;50.660;6.778;2022-09-12T14:46:23;2.53;;;1.65;;
11305;SDS011;5708;50.660;6.778;2022-09-12T14:49:08;1.48;;;1.20;;
11305;SDS011;5708;50.660;6.778;2022-09-12T14:51:37;2.42;;;1.10;;
11305;SDS011;5708;50.660;6.778;2022-09-12T14:54:04;1.80;;;1.10;;
11305;SDS011;5708;50.660;6.778;2022-09-12T14:56:40;1.33;;;0.90;;
11305;SDS011;5708;50.660;6.778;2022-09-12T15:07:34;1.98;;;1.00;;
11305;SDS011;5708;50.660;6.778;2022-09-12T15:10:18;1.33;;;1.00;;
11305;SDS011;5708;50.660;6.778;2022-09-12T15:12:48;1.67;;;0.90;;
11305;SDS011;5708;50.660;6.778;2022-09-12T15:15:15;2.30;;;0.90;;
11305;SDS011;5708;50.660;6.778;2022-09-12T15:17:42;2.00;;;0.93;;
11305;SDS011;5708;50.660;6.778;2022-09-12T15:20:08;2.03;;;1.00;;
11305;SDS011;5708;50.660;6.778;2022-09-12T15:22:34;2.00;;;1.13;;
11305;SDS011;5708;50.660;6.778;2022-09-12T15:25:00;1.65;;;1.08;;
11305;SDS011;5708;50.660;6.778;2022-09-12T15:27:26;2.00;;;1.10;;
11305;SDS011;5708;50.660;6.778;2022-09-12T15:29:52;1.88;;;1.10;;
11305;SDS011;5708;50.660;6.778;2022-09-12T15:32:29;4.40;;;1.23;;
11305;SDS011;5708;50.660;6.778;2022-09-12T15:34:55;2.38;;;1.20;;
11305;SDS011;5708;50.660;6.778;2022-09-12T15:37:21;1.58;;;1.13;;
11305;SDS011;5708;50.660;6.778;2022-09-12T15:39:47;3.97;;;1.10;;
11305;SDS011;5708;50.660;6.778;2022-09-12T15:42:14;2.92;;;1.20;;
11305;SDS011;5708;50.660;6.778;2022-09-12T15:44:40;1.10;;;0.90;;
11305;SDS011;5708;50.660;6.778;2022-09-12T15:47:05;2.42;;;1.20;;
11305;SDS011;5708;50.660;6.778;2022-09-12T15:49:32;3.15;;;1.15;;
11305;SDS011;5708;50.660;6.778;2022-09-12T15:51:58;1.55;;;1.08;;
11305;SDS011;5708;50.660;6.778;2022-09-12T15:54:23;2.40;;;1.33;;
11305;SDS011;5708;50.660;6.778;2022-09-12T15:56:49;2.22;;;1.30;;
11305;SDS011;5708;50.660;6.778;2022-09-12T15:59:14;3.17;;;1.20;;
11305;SDS011;5708;50.660;6.778;2022-09-12T16:01:39;2.58;;;1.30;;
11305;SDS011;5708;50.660;6.778;2022-09-12T16:04:27;1.42;;;1.27;;
11305;SDS011;5708;50.660;6.778;2022-09-12T16:06:52;1.40;;;1.10;;
11305;SDS011;5708;50.660;6.778;2022-09-12T16:09:19;2.90;;;1.50;;
11305;SDS011;5708;50.660;6.778;2022-09-12T16:11:44;1.80;;;1.17;;
11305;SDS011;5708;50.660;6.778;2022-09-12T16:14:12;2.58;;;1.60;;
11305;SDS011;5708;50.660;6.778;2022-09-12T16:16:38;1.80;;;1.10;;
11305;SDS011;5708;50.660;6.778;2022-09-12T16:19:04;4.07;;;1.55;;
11305;SDS011;5708;50.660;6.778;2022-09-12T16:21:29;2.13;;;1.10;;
11305;SDS011;5708;50.660;6.778;2022-09-12T16:23:55;2.30;;;1.20;;
11305;SDS011;5708;50.660;6.778;2022-09-12T16:26:21;3.35;;;1.40;;
11305;SDS011;5708;50.660;6.778;2022-09-12T16:28:46;2.70;;;1.20;;
11305;SDS011;5708;50.660;6.778;2022-09-12T16:31:12;3.03;;;1.27;;
11305;SDS011;5708;50.660;6.778;2022-09-12T16:33:39;2.20;;;1.10;;
11305;SDS011;5708;50.660;6.778;2022-09-12T16:36:09;2.05;;;1.20;;
11305;SDS011;5708;50.660;6.778;2022-09-12T16:38:43;2.25;;;1.30;;
11305;SDS011;5708;50.660;6.778;2022-09-12T16:41:13;1.58;;;1.20;;
11305;SDS011;5708;50.660;6.778;2022-09-12T16:43:39;2.55;;;1.52;;
11305;SDS011;5708;50.660;6.778;2022-09-12T16:46:15;1.80;;;1.30;;
11305;SDS011;5708;50.660;6.778;2022-09-12T16:48:46;2.40;;;1.15;;
11305;SDS011;5708;50.660;6.778;2022-09-12T16:51:19;1.27;;;1.02;;
11305;SDS011;5708;50.660;6.778;2022-09-12T16:53:46;1.90;;;1.13;;
11305;SDS011;5708;50.660;6.778;2022-09-12T16:56:12;1.83;;;1.25;;
11305;SDS011;5708;50.660;6.778;2022-09-12T16:58:39;2.33;;;1.20;;
11305;SDS011;5708;50.660;6.778;2022-09-12T17:01:06;2.03;;;1.30;;
11305;SDS011;5708;50.660;6.778;2022-09-12T17:03:36;1.40;;;1.30;;
11305;SDS011;5708;50.660;6.778;2022-09-12T17:06:03;2.25;;;1.52;;
11305;SDS011;5708;50.660;6.778;2022-09-12T17:08:35;3.92;;;1.40;;
11305;SDS011;5708;50.660;6.778;2022-09-12T17:11:15;3.20;;;1.27;;
11305;SDS011;5708;50.660;6.778;2022-09-12T17:13:46;1.55;;;1.20;;
11305;SDS011;5708;50.660;6.778;2022-09-12T17:16:16;3.65;;;1.30;;
11305;SDS011;5708;50.660;6.778;2022-09-12T17:18:41;2.83;;;1.65;;
11305;SDS011;5708;50.660;6.778;2022-09-12T17:21:07;2.35;;;1.40;;
11305;SDS011;5708;50.660;6.778;2022-09-12T17:23:33;3.05;;;1.40;;
11305;SDS011;5708;50.660;6.778;2022-09-12T17:25:58;2.20;;;1.52;;
11305;SDS011;5708;50.660;6.778;2022-09-12T17:28:35;6.18;;;1.30;;
11305;SDS011;5708;50.660;6.778;2022-09-12T17:31:01;3.70;;;1.33;;
11305;SDS011;5708;50.660;6.778;2022-09-12T17:33:28;1.27;;;1.05;;
11305;SDS011;5708;50.660;6.778;2022-09-12T17:35:54;1.42;;;0.98;;
11305;SDS011;5708;50.660;6.778;2022-09-12T17:38:20;1.67;;;1.45;;
11305;SDS011;5708;50.660;6.778;2022-09-12T17:40:47;2.85;;;1.30;;
11305;SDS011;5708;50.660;6.778;2022-09-12T17:43:12;5.63;;;1.60;;
11305;SDS011;5708;50.660;6.778;2022-09-12T17:45:38;2.25;;;1.40;;
11305;SDS011;5708;50.660;6.778;2022-09-12T17:48:04;2.72;;;1.50;;
11305;SDS011;5708;50.660;6.778;2022-09-12T17:50:33;2.28;;;1.30;;
11305;SDS011;5708;50.660;6.778;2022-09-12T17:52:59;1.52;;;1.17;;
11305;SDS011;5708;50.660;6.778;2022-09-12T17:55:25;1.90;;;1.30;;
11305;SDS011;5708;50.660;6.778;2022-09-12T17:57:53;1.38;;;1.00;;
11305;SDS011;5708;50.660;6.778;2022-09-12T18:00:18;2.22;;;1.10;;